Αρχική σελίδα
METAR-TAF:

METAR-TAF

Αεροδρόμια :

Johnson County Executive Airport

Olathe, Κάνσας, Ηνωμένες Πολιτείες Αμερικής

γεωγραφικό πλάτος: 38-51-00N, γεωγραφικό μήκος: 094-44-21W, υψόμετρο: 334 μ

Παρών καιρός

Η αναφορά έγινε 12 λεπτά πριν, στις 01:53 UTC
Άνεμος 8 kt από Ν
Θερμοκρασία 11°C
Υγρασία 62%
Πίεση 1020 hPa
Ορατότητα: 16.1 χλμ
Καθαρός ουρανός

METAR: KOJC 220153Z 19008KT 10SM CLR 11/04 A3012 RMK AO2 SLP203 T01110044

Χρόνος: 21:05 (02:05 UTC)


TAF: λείπει

Μετεωρολογικές αναφορές και προγνώσεις για περισσότερα από 4000 αεροδρόμια (δελτία METAR και TAF).

Οι διαθέσιμοι σταθμοί απεικονίζονται στο χάρτη με κίτρινες και κόκκινες κουκκίδες.

Μετακινήστε το ποντίκι πάνω από τις κουκκίδες για να δείτε το όνομα του σταθμού.

Στη συνέχεια, κάντε κλικ για να δείτε τις μετεωρολογικές αναφορές και τις προγνώσεις καιρού.

Για να αλλάξετε το χάρτη: κάντε κλικ στα πράσινα κουμπιά με τον μαύρο σταυρό για να ζουμάρετε, στο πράσινο κουμπί με την παύλα για να αφαιρέσετε το ζουμ ή στα πράσινα βέλη για να αντιπαραβάλλετε χάρτες.


METAR-TAF: